sensor_id;sensor_type;location;lat;lon;timestamp;P1;durP1;ratioP1;P2;durP2;ratioP2
45848;SDS011;31567;54.600;9.842;2022-12-22T00:03:13;53.10;;;31.48;;
45848;SDS011;31567;54.600;9.842;2022-12-22T00:07:11;49.25;;;29.83;;
45848;SDS011;31567;54.600;9.842;2022-12-22T00:11:09;54.33;;;32.00;;
45848;SDS011;31567;54.600;9.842;2022-12-22T00:15:12;48.90;;;29.85;;
45848;SDS011;31567;54.600;9.842;2022-12-22T00:19:12;50.67;;;28.73;;
45848;SDS011;31567;54.600;9.842;2022-12-22T00:23:12;50.58;;;29.15;;
45848;SDS011;31567;54.600;9.842;2022-12-22T00:27:25;52.55;;;29.95;;
45848;SDS011;31567;54.600;9.842;2022-12-22T00:31:25;48.00;;;28.88;;
45848;SDS011;31567;54.600;9.842;2022-12-22T00:35:24;49.38;;;29.25;;
45848;SDS011;31567;54.600;9.842;2022-12-22T00:39:23;50.00;;;29.08;;
45848;SDS011;31567;54.600;9.842;2022-12-22T00:43:21;51.10;;;29.42;;
45848;SDS011;31567;54.600;9.842;2022-12-22T00:47:24;52.08;;;29.00;;
45848;SDS011;31567;54.600;9.842;2022-12-22T00:51:25;50.40;;;30.08;;
45848;SDS011;31567;54.600;9.842;2022-12-22T00:55:24;51.05;;;28.70;;
45848;SDS011;31567;54.600;9.842;2022-12-22T00:59:27;49.80;;;28.70;;
45848;SDS011;31567;54.600;9.842;2022-12-22T01:03:25;43.92;;;27.15;;
45848;SDS011;31567;54.600;9.842;2022-12-22T01:07:23;53.50;;;27.73;;
45848;SDS011;31567;54.600;9.842;2022-12-22T01:11:23;47.13;;;28.77;;
45848;SDS011;31567;54.600;9.842;2022-12-22T01:15:24;44.50;;;28.08;;
45848;SDS011;31567;54.600;9.842;2022-12-22T01:19:23;51.83;;;29.67;;
45848;SDS011;31567;54.600;9.842;2022-12-22T01:23:21;54.97;;;28.90;;
45848;SDS011;31567;54.600;9.842;2022-12-22T01:27:19;47.10;;;27.80;;
45848;SDS011;31567;54.600;9.842;2022-12-22T01:31:26;46.78;;;27.90;;
45848;SDS011;31567;54.600;9.842;2022-12-22T01:35:27;45.72;;;28.00;;
45848;SDS011;31567;54.600;9.842;2022-12-22T01:39:27;46.28;;;27.77;;
45848;SDS011;31567;54.600;9.842;2022-12-22T01:43:26;48.83;;;28.42;;
45848;SDS011;31567;54.600;9.842;2022-12-22T01:51:27;50.50;;;28.73;;
45848;SDS011;31567;54.600;9.842;2022-12-22T01:55:25;44.30;;;28.88;;
45848;SDS011;31567;54.600;9.842;2022-12-22T01:59:23;49.10;;;28.85;;
45848;SDS011;31567;54.600;9.842;2022-12-22T02:03:21;50.88;;;29.40;;
45848;SDS011;31567;54.600;9.842;2022-12-22T02:11:57;49.70;;;28.02;;
45848;SDS011;31567;54.600;9.842;2022-12-22T02:16:10;48.80;;;29.08;;
45848;SDS011;31567;54.600;9.842;2022-12-22T02:25:02;51.25;;;29.88;;
45848;SDS011;31567;54.600;9.842;2022-12-22T02:29:03;54.60;;;29.50;;
45848;SDS011;31567;54.600;9.842;2022-12-22T02:33:03;50.33;;;29.88;;
45848;SDS011;31567;54.600;9.842;2022-12-22T02:41:18;53.05;;;28.23;;
45848;SDS011;31567;54.600;9.842;2022-12-22T02:45:37;50.80;;;29.08;;
45848;SDS011;31567;54.600;9.842;2022-12-22T02:49:53;57.60;;;30.70;;
45848;SDS011;31567;54.600;9.842;2022-12-22T02:53:59;45.65;;;27.33;;
45848;SDS011;31567;54.600;9.842;2022-12-22T02:57:59;47.63;;;26.85;;
45848;SDS011;31567;54.600;9.842;2022-12-22T03:01:57;43.22;;;27.05;;
45848;SDS011;31567;54.600;9.842;2022-12-22T03:05:55;43.97;;;27.73;;
45848;SDS011;31567;54.600;9.842;2022-12-22T03:09:53;47.53;;;28.17;;
45848;SDS011;31567;54.600;9.842;2022-12-22T03:13:51;44.80;;;27.65;;
45848;SDS011;31567;54.600;9.842;2022-12-22T03:17:49;44.08;;;27.85;;
45848;SDS011;31567;54.600;9.842;2022-12-22T03:21:47;43.42;;;27.75;;
45848;SDS011;31567;54.600;9.842;2022-12-22T03:25:46;45.20;;;27.77;;
45848;SDS011;31567;54.600;9.842;2022-12-22T03:29:31;46.07;;;28.80;;
45848;SDS011;31567;54.600;9.842;2022-12-22T03:33:11;48.17;;;28.35;;
45848;SDS011;31567;54.600;9.842;2022-12-22T03:36:51;46.28;;;27.15;;
45848;SDS011;31567;54.600;9.842;2022-12-22T03:40:30;42.75;;;27.55;;
45848;SDS011;31567;54.600;9.842;2022-12-22T03:44:10;47.08;;;28.95;;
45848;SDS011;31567;54.600;9.842;2022-12-22T03:48:08;48.55;;;29.30;;
45848;SDS011;31567;54.600;9.842;2022-12-22T03:51:49;48.58;;;29.05;;
45848;SDS011;31567;54.600;9.842;2022-12-22T03:55:29;56.10;;;30.65;;
45848;SDS011;31567;54.600;9.842;2022-12-22T03:59:09;52.55;;;30.33;;
45848;SDS011;31567;54.600;9.842;2022-12-22T04:02:49;56.38;;;32.05;;
45848;SDS011;31567;54.600;9.842;2022-12-22T04:06:28;53.95;;;30.98;;
45848;SDS011;31567;54.600;9.842;2022-12-22T04:10:08;53.65;;;30.65;;
45848;SDS011;31567;54.600;9.842;2022-12-22T04:14:06;56.22;;;31.02;;
45848;SDS011;31567;54.600;9.842;2022-12-22T04:17:46;57.03;;;31.42;;
45848;SDS011;31567;54.600;9.842;2022-12-22T04:21:25;54.78;;;30.58;;
45848;SDS011;31567;54.600;9.842;2022-12-22T04:25:05;56.42;;;32.13;;
45848;SDS011;31567;54.600;9.842;2022-12-22T04:28:45;55.22;;;31.90;;
45848;SDS011;31567;54.600;9.842;2022-12-22T04:32:25;59.38;;;31.33;;
45848;SDS011;31567;54.600;9.842;2022-12-22T04:36:05;52.83;;;30.75;;
45848;SDS011;31567;54.600;9.842;2022-12-22T04:39:45;56.17;;;30.30;;
45848;SDS011;31567;54.600;9.842;2022-12-22T04:43:24;59.13;;;30.25;;
45848;SDS011;31567;54.600;9.842;2022-12-22T04:47:04;56.92;;;29.20;;
45848;SDS011;31567;54.600;9.842;2022-12-22T04:50:43;64.55;;;30.20;;
45848;SDS011;31567;54.600;9.842;2022-12-22T04:54:23;65.93;;;29.55;;
45848;SDS011;31567;54.600;9.842;2022-12-22T04:58:03;57.95;;;29.98;;
45848;SDS011;31567;54.600;9.842;2022-12-22T05:01:42;54.55;;;29.67;;
45848;SDS011;31567;54.600;9.842;2022-12-22T05:05:22;56.38;;;29.52;;
45848;SDS011;31567;54.600;9.842;2022-12-22T05:09:02;60.53;;;30.17;;
45848;SDS011;31567;54.600;9.842;2022-12-22T05:12:41;55.33;;;29.50;;
45848;SDS011;31567;54.600;9.842;2022-12-22T05:16:33;54.35;;;27.10;;
45848;SDS011;31567;54.600;9.842;2022-12-22T05:20:12;56.20;;;29.65;;
45848;SDS011;31567;54.600;9.842;2022-12-22T05:23:52;62.65;;;29.42;;
45848;SDS011;31567;54.600;9.842;2022-12-22T05:27:32;57.33;;;29.63;;
45848;SDS011;31567;54.600;9.842;2022-12-22T05:31:18;54.72;;;29.00;;
45848;SDS011;31567;54.600;9.842;2022-12-22T05:35:00;60.17;;;30.05;;
45848;SDS011;31567;54.600;9.842;2022-12-22T05:38:41;60.47;;;30.20;;
45848;SDS011;31567;54.600;9.842;2022-12-22T05:42:22;59.10;;;30.45;;
45848;SDS011;31567;54.600;9.842;2022-12-22T05:46:14;57.80;;;29.63;;
45848;SDS011;31567;54.600;9.842;2022-12-22T05:49:53;52.80;;;27.52;;
45848;SDS011;31567;54.600;9.842;2022-12-22T05:53:33;47.47;;;26.63;;
45848;SDS011;31567;54.600;9.842;2022-12-22T05:57:12;55.95;;;28.38;;
45848;SDS011;31567;54.600;9.842;2022-12-22T06:00:54;47.83;;;27.42;;
45848;SDS011;31567;54.600;9.842;2022-12-22T06:04:36;52.60;;;27.73;;
45848;SDS011;31567;54.600;9.842;2022-12-22T06:08:15;57.08;;;28.92;;
45848;SDS011;31567;54.600;9.842;2022-12-22T06:11:55;50.10;;;27.02;;
45848;SDS011;31567;54.600;9.842;2022-12-22T06:15:34;51.97;;;26.95;;
45848;SDS011;31567;54.600;9.842;2022-12-22T06:19:14;47.40;;;27.05;;
45848;SDS011;31567;54.600;9.842;2022-12-22T06:22:53;57.90;;;27.48;;
45848;SDS011;31567;54.600;9.842;2022-12-22T06:26:33;48.78;;;26.88;;
45848;SDS011;31567;54.600;9.842;2022-12-22T06:30:13;48.67;;;26.60;;
45848;SDS011;31567;54.600;9.842;2022-12-22T06:33:54;42.58;;;23.73;;
45848;SDS011;31567;54.600;9.842;2022-12-22T06:37:33;42.67;;;25.00;;
45848;SDS011;31567;54.600;9.842;2022-12-22T06:41:13;41.35;;;23.10;;
45848;SDS011;31567;54.600;9.842;2022-12-22T06:44:52;38.45;;;21.88;;
45848;SDS011;31567;54.600;9.842;2022-12-22T06:48:33;39.25;;;22.13;;
45848;SDS011;31567;54.600;9.842;2022-12-22T06:52:12;46.97;;;23.25;;
45848;SDS011;31567;54.600;9.842;2022-12-22T06:55:52;41.45;;;22.25;;
45848;SDS011;31567;54.600;9.842;2022-12-22T06:59:32;48.45;;;24.27;;
45848;SDS011;31567;54.600;9.842;2022-12-22T07:03:11;48.20;;;24.15;;
45848;SDS011;31567;54.600;9.842;2022-12-22T07:06:51;44.95;;;23.58;;
45848;SDS011;31567;54.600;9.842;2022-12-22T07:10:30;44.47;;;23.73;;
45848;SDS011;31567;54.600;9.842;2022-12-22T07:14:28;46.90;;;23.90;;
45848;SDS011;31567;54.600;9.842;2022-12-22T07:18:08;47.83;;;24.65;;
45848;SDS011;31567;54.600;9.842;2022-12-22T07:21:47;49.33;;;24.30;;
45848;SDS011;31567;54.600;9.842;2022-12-22T07:25:28;43.47;;;24.05;;
45848;SDS011;31567;54.600;9.842;2022-12-22T07:29:08;51.63;;;24.77;;
45848;SDS011;31567;54.600;9.842;2022-12-22T07:32:48;49.47;;;24.70;;
45848;SDS011;31567;54.600;9.842;2022-12-22T07:36:27;47.78;;;24.08;;
45848;SDS011;31567;54.600;9.842;2022-12-22T07:40:07;51.58;;;24.83;;
45848;SDS011;31567;54.600;9.842;2022-12-22T07:43:47;44.50;;;23.48;;
45848;SDS011;31567;54.600;9.842;2022-12-22T07:47:26;53.17;;;23.63;;
45848;SDS011;31567;54.600;9.842;2022-12-22T07:51:06;48.35;;;24.48;;
45848;SDS011;31567;54.600;9.842;2022-12-22T07:54:45;42.63;;;22.15;;
45848;SDS011;31567;54.600;9.842;2022-12-22T07:58:25;50.83;;;24.40;;
45848;SDS011;31567;54.600;9.842;2022-12-22T08:02:05;44.25;;;23.75;;
45848;SDS011;31567;54.600;9.842;2022-12-22T08:05:47;42.80;;;23.10;;
45848;SDS011;31567;54.600;9.842;2022-12-22T08:09:27;43.63;;;22.88;;
45848;SDS011;31567;54.600;9.842;2022-12-22T08:13:06;44.03;;;22.52;;
45848;SDS011;31567;54.600;9.842;2022-12-22T08:16:46;40.80;;;22.33;;
45848;SDS011;31567;54.600;9.842;2022-12-22T08:20:25;44.75;;;24.17;;
45848;SDS011;31567;54.600;9.842;2022-12-22T08:24:05;43.05;;;22.90;;
45848;SDS011;31567;54.600;9.842;2022-12-22T08:27:47;42.83;;;23.15;;
45848;SDS011;31567;54.600;9.842;2022-12-22T08:31:28;49.90;;;24.65;;
45848;SDS011;31567;54.600;9.842;2022-12-22T08:35:09;46.08;;;23.80;;
45848;SDS011;31567;54.600;9.842;2022-12-22T08:38:49;46.28;;;23.77;;
45848;SDS011;31567;54.600;9.842;2022-12-22T08:42:29;48.28;;;24.42;;
45848;SDS011;31567;54.600;9.842;2022-12-22T08:46:09;43.95;;;23.98;;
45848;SDS011;31567;54.600;9.842;2022-12-22T08:49:49;43.35;;;23.65;;
45848;SDS011;31567;54.600;9.842;2022-12-22T08:53:29;44.38;;;23.92;;
45848;SDS011;31567;54.600;9.842;2022-12-22T08:57:08;44.30;;;23.98;;
45848;SDS011;31567;54.600;9.842;2022-12-22T09:00:48;41.97;;;22.83;;
45848;SDS011;31567;54.600;9.842;2022-12-22T09:04:27;42.30;;;22.17;;
45848;SDS011;31567;54.600;9.842;2022-12-22T09:08:07;37.50;;;22.10;;
45848;SDS011;31567;54.600;9.842;2022-12-22T09:11:46;39.65;;;21.27;;
45848;SDS011;31567;54.600;9.842;2022-12-22T09:15:26;33.60;;;19.73;;
45848;SDS011;31567;54.600;9.842;2022-12-22T09:19:06;28.30;;;16.33;;
45848;SDS011;31567;54.600;9.842;2022-12-22T09:22:46;25.63;;;16.10;;
45848;SDS011;31567;54.600;9.842;2022-12-22T09:26:26;23.80;;;15.15;;
45848;SDS011;31567;54.600;9.842;2022-12-22T09:30:07;24.48;;;15.30;;
45848;SDS011;31567;54.600;9.842;2022-12-22T09:33:47;25.50;;;15.13;;
45848;SDS011;31567;54.600;9.842;2022-12-22T09:37:27;24.48;;;15.20;;
45848;SDS011;31567;54.600;9.842;2022-12-22T09:45:13;23.65;;;14.05;;
45848;SDS011;31567;54.600;9.842;2022-12-22T09:49:00;25.30;;;16.00;;
45848;SDS011;31567;54.600;9.842;2022-12-22T09:52:47;25.30;;;15.27;;
45848;SDS011;31567;54.600;9.842;2022-12-22T09:56:30;27.27;;;15.75;;
45848;SDS011;31567;54.600;9.842;2022-12-22T10:00:13;25.55;;;15.35;;
45848;SDS011;31567;54.600;9.842;2022-12-22T10:03:58;25.30;;;16.60;;
45848;SDS011;31567;54.600;9.842;2022-12-22T10:07:47;23.98;;;14.90;;
45848;SDS011;31567;54.600;9.842;2022-12-22T10:11:27;24.95;;;15.57;;
45848;SDS011;31567;54.600;9.842;2022-12-22T10:15:09;26.45;;;15.65;;
45848;SDS011;31567;54.600;9.842;2022-12-22T10:19:09;20.83;;;13.65;;
45848;SDS011;31567;54.600;9.842;2022-12-22T10:23:25;20.90;;;12.90;;
45848;SDS011;31567;54.600;9.842;2022-12-22T10:26:59;20.70;;;13.27;;
45848;SDS011;31567;54.600;9.842;2022-12-22T10:30:41;22.33;;;14.00;;
45848;SDS011;31567;54.600;9.842;2022-12-22T10:34:20;21.45;;;13.95;;
45848;SDS011;31567;54.600;9.842;2022-12-22T10:38:09;21.25;;;14.65;;
45848;SDS011;31567;54.600;9.842;2022-12-22T10:42:00;25.85;;;15.10;;
45848;SDS011;31567;54.600;9.842;2022-12-22T10:45:51;23.38;;;15.90;;
45848;SDS011;31567;54.600;9.842;2022-12-22T10:49:34;22.88;;;15.25;;
45848;SDS011;31567;54.600;9.842;2022-12-22T10:53:16;22.23;;;14.60;;
45848;SDS011;31567;54.600;9.842;2022-12-22T11:01:01;21.15;;;13.65;;
45848;SDS011;31567;54.600;9.842;2022-12-22T11:04:42;21.92;;;13.05;;
45848;SDS011;31567;54.600;9.842;2022-12-22T11:08:22;21.08;;;13.35;;
45848;SDS011;31567;54.600;9.842;2022-12-22T11:12:17;23.73;;;13.98;;
45848;SDS011;31567;54.600;9.842;2022-12-22T11:24:06;17.33;;;10.85;;
45848;SDS011;31567;54.600;9.842;2022-12-22T11:28:02;15.60;;;10.80;;
45848;SDS011;31567;54.600;9.842;2022-12-22T11:39:52;19.40;;;11.82;;
45848;SDS011;31567;54.600;9.842;2022-12-22T11:47:45;15.85;;;10.05;;
45848;SDS011;31567;54.600;9.842;2022-12-22T11:55:34;17.55;;;9.30;;
45848;SDS011;31567;54.600;9.842;2022-12-22T12:16:05;18.48;;;7.57;;
45848;SDS011;31567;54.600;9.842;2022-12-22T12:23:57;16.38;;;8.30;;
45848;SDS011;31567;54.600;9.842;2022-12-22T12:28:09;21.50;;;8.50;;
45848;SDS011;31567;54.600;9.842;2022-12-22T12:39:36;18.85;;;7.30;;
45848;SDS011;31567;54.600;9.842;2022-12-22T12:43:28;13.68;;;6.68;;
45848;SDS011;31567;54.600;9.842;2022-12-22T12:55:50;19.15;;;7.30;;
45848;SDS011;31567;54.600;9.842;2022-12-22T13:07:06;17.20;;;7.00;;
45848;SDS011;31567;54.600;9.842;2022-12-22T13:11:32;19.08;;;7.50;;
45848;SDS011;31567;54.600;9.842;2022-12-22T13:14:56;21.95;;;7.47;;
45848;SDS011;31567;54.600;9.842;2022-12-22T13:18:43;19.20;;;7.22;;
45848;SDS011;31567;54.600;9.842;2022-12-22T13:22:24;17.73;;;7.13;;
45848;SDS011;31567;54.600;9.842;2022-12-22T13:26:14;20.35;;;7.03;;
45848;SDS011;31567;54.600;9.842;2022-12-22T13:29:55;21.90;;;7.10;;
45848;SDS011;31567;54.600;9.842;2022-12-22T13:33:36;23.63;;;7.55;;
45848;SDS011;31567;54.600;9.842;2022-12-22T13:37:18;19.80;;;8.07;;
45848;SDS011;31567;54.600;9.842;2022-12-22T13:41:03;20.80;;;7.32;;
45848;SDS011;31567;54.600;9.842;2022-12-22T13:44:54;17.58;;;6.78;;
45848;SDS011;31567;54.600;9.842;2022-12-22T13:52:16;25.70;;;8.82;;
45848;SDS011;31567;54.600;9.842;2022-12-22T13:55:57;19.08;;;7.15;;
45848;SDS011;31567;54.600;9.842;2022-12-22T13:59:41;26.25;;;8.23;;
45848;SDS011;31567;54.600;9.842;2022-12-22T14:03:22;20.73;;;7.78;;
45848;SDS011;31567;54.600;9.842;2022-12-22T14:07:15;16.50;;;7.55;;
45848;SDS011;31567;54.600;9.842;2022-12-22T14:10:59;23.77;;;8.48;;
45848;SDS011;31567;54.600;9.842;2022-12-22T14:14:43;18.67;;;8.00;;
45848;SDS011;31567;54.600;9.842;2022-12-22T14:18:24;23.38;;;8.07;;
45848;SDS011;31567;54.600;9.842;2022-12-22T14:22:08;22.55;;;8.95;;
45848;SDS011;31567;54.600;9.842;2022-12-22T14:25:52;27.33;;;9.75;;
45848;SDS011;31567;54.600;9.842;2022-12-22T14:29:33;28.90;;;10.35;;
45848;SDS011;31567;54.600;9.842;2022-12-22T14:33:16;21.15;;;7.93;;
45848;SDS011;31567;54.600;9.842;2022-12-22T14:37:07;25.67;;;8.02;;
45848;SDS011;31567;54.600;9.842;2022-12-22T14:40:48;23.15;;;7.43;;
45848;SDS011;31567;54.600;9.842;2022-12-22T14:44:28;22.65;;;7.57;;
45848;SDS011;31567;54.600;9.842;2022-12-22T14:48:17;22.20;;;7.80;;
45848;SDS011;31567;54.600;9.842;2022-12-22T14:52:06;15.23;;;6.65;;
45848;SDS011;31567;54.600;9.842;2022-12-22T14:55:54;16.70;;;7.75;;
45848;SDS011;31567;54.600;9.842;2022-12-22T14:59:33;18.75;;;7.47;;
45848;SDS011;31567;54.600;9.842;2022-12-22T15:03:29;16.80;;;7.32;;
45848;SDS011;31567;54.600;9.842;2022-12-22T15:07:18;26.27;;;7.68;;
45848;SDS011;31567;54.600;9.842;2022-12-22T15:10:58;21.90;;;9.30;;
45848;SDS011;31567;54.600;9.842;2022-12-22T15:14:38;22.65;;;8.40;;
45848;SDS011;31567;54.600;9.842;2022-12-22T15:18:19;20.15;;;7.60;;
45848;SDS011;31567;54.600;9.842;2022-12-22T15:22:05;19.77;;;7.45;;
45848;SDS011;31567;54.600;9.842;2022-12-22T15:25:45;16.80;;;6.68;;
45848;SDS011;31567;54.600;9.842;2022-12-22T15:29:24;19.90;;;6.55;;
45848;SDS011;31567;54.600;9.842;2022-12-22T15:33:09;19.00;;;6.55;;
45848;SDS011;31567;54.600;9.842;2022-12-22T15:36:52;15.95;;;5.95;;
45848;SDS011;31567;54.600;9.842;2022-12-22T15:40:32;19.98;;;5.72;;
45848;SDS011;31567;54.600;9.842;2022-12-22T15:44:12;25.52;;;6.43;;
45848;SDS011;31567;54.600;9.842;2022-12-22T15:47:52;21.13;;;7.00;;
45848;SDS011;31567;54.600;9.842;2022-12-22T15:51:33;19.42;;;7.43;;
45848;SDS011;31567;54.600;9.842;2022-12-22T15:55:13;24.27;;;7.05;;
45848;SDS011;31567;54.600;9.842;2022-12-22T15:58:54;19.50;;;6.18;;
45848;SDS011;31567;54.600;9.842;2022-12-22T16:02:33;24.20;;;6.00;;
45848;SDS011;31567;54.600;9.842;2022-12-22T16:06:13;25.85;;;6.70;;
45848;SDS011;31567;54.600;9.842;2022-12-22T16:09:54;15.15;;;4.97;;
45848;SDS011;31567;54.600;9.842;2022-12-22T16:13:35;21.10;;;6.05;;
45848;SDS011;31567;54.600;9.842;2022-12-22T16:17:16;24.08;;;5.60;;
45848;SDS011;31567;54.600;9.842;2022-12-22T16:21:04;22.42;;;5.95;;
45848;SDS011;31567;54.600;9.842;2022-12-22T16:24:46;21.63;;;6.22;;
45848;SDS011;31567;54.600;9.842;2022-12-22T16:28:27;22.35;;;5.57;;
45848;SDS011;31567;54.600;9.842;2022-12-22T16:36:06;14.82;;;5.28;;
45848;SDS011;31567;54.600;9.842;2022-12-22T16:39:46;19.98;;;5.30;;
45848;SDS011;31567;54.600;9.842;2022-12-22T16:43:29;15.52;;;5.22;;
45848;SDS011;31567;54.600;9.842;2022-12-22T16:47:15;21.55;;;5.50;;
45848;SDS011;31567;54.600;9.842;2022-12-22T16:50:57;26.30;;;5.38;;
45848;SDS011;31567;54.600;9.842;2022-12-22T16:54:36;21.50;;;6.53;;
45848;SDS011;31567;54.600;9.842;2022-12-22T16:58:16;21.02;;;5.43;;
45848;SDS011;31567;54.600;9.842;2022-12-22T17:01:55;24.05;;;5.57;;
45848;SDS011;31567;54.600;9.842;2022-12-22T17:05:37;19.35;;;5.43;;
45848;SDS011;31567;54.600;9.842;2022-12-22T17:09:23;18.77;;;5.33;;
45848;SDS011;31567;54.600;9.842;2022-12-22T17:13:08;16.98;;;4.97;;
45848;SDS011;31567;54.600;9.842;2022-12-22T17:16:49;23.30;;;5.75;;
45848;SDS011;31567;54.600;9.842;2022-12-22T17:20:31;21.38;;;5.82;;
45848;SDS011;31567;54.600;9.842;2022-12-22T17:24:14;24.20;;;5.85;;
45848;SDS011;31567;54.600;9.842;2022-12-22T17:27:55;31.33;;;5.97;;
45848;SDS011;31567;54.600;9.842;2022-12-22T17:31:36;29.75;;;5.53;;
45848;SDS011;31567;54.600;9.842;2022-12-22T17:35:16;24.67;;;6.40;;
45848;SDS011;31567;54.600;9.842;2022-12-22T17:38:57;12.57;;;5.43;;
45848;SDS011;31567;54.600;9.842;2022-12-22T17:42:37;23.77;;;6.03;;
45848;SDS011;31567;54.600;9.842;2022-12-22T17:46:18;15.63;;;4.65;;
45848;SDS011;31567;54.600;9.842;2022-12-22T17:49:58;23.13;;;5.32;;
45848;SDS011;31567;54.600;9.842;2022-12-22T17:53:38;22.17;;;4.15;;
45848;SDS011;31567;54.600;9.842;2022-12-22T17:57:19;19.00;;;4.03;;
45848;SDS011;31567;54.600;9.842;2022-12-22T18:01:05;18.35;;;4.50;;
45848;SDS011;31567;54.600;9.842;2022-12-22T18:04:48;21.58;;;3.83;;
45848;SDS011;31567;54.600;9.842;2022-12-22T18:08:28;26.95;;;4.60;;
45848;SDS011;31567;54.600;9.842;2022-12-22T18:12:10;20.85;;;4.20;;
45848;SDS011;31567;54.600;9.842;2022-12-22T18:15:56;17.42;;;4.05;;
45848;SDS011;31567;54.600;9.842;2022-12-22T18:19:36;20.95;;;3.53;;
45848;SDS011;31567;54.600;9.842;2022-12-22T18:23:16;24.45;;;4.10;;
45848;SDS011;31567;54.600;9.842;2022-12-22T18:27:10;26.98;;;5.35;;
45848;SDS011;31567;54.600;9.842;2022-12-22T18:30:50;21.88;;;4.30;;
45848;SDS011;31567;54.600;9.842;2022-12-22T18:34:30;25.42;;;4.82;;
45848;SDS011;31567;54.600;9.842;2022-12-22T18:38:20;20.27;;;4.60;;
45848;SDS011;31567;54.600;9.842;2022-12-22T18:42:15;24.33;;;6.38;;
45848;SDS011;31567;54.600;9.842;2022-12-22T18:46:01;28.05;;;6.30;;
45848;SDS011;31567;54.600;9.842;2022-12-22T18:49:40;24.27;;;5.72;;
45848;SDS011;31567;54.600;9.842;2022-12-22T18:53:24;27.35;;;5.82;;
45848;SDS011;31567;54.600;9.842;2022-12-22T18:57:14;25.92;;;5.53;;
45848;SDS011;31567;54.600;9.842;2022-12-22T19:00:55;27.80;;;7.68;;
45848;SDS011;31567;54.600;9.842;2022-12-22T19:04:34;22.52;;;6.32;;
45848;SDS011;31567;54.600;9.842;2022-12-22T19:08:15;18.10;;;5.75;;
45848;SDS011;31567;54.600;9.842;2022-12-22T19:11:56;20.27;;;6.53;;
45848;SDS011;31567;54.600;9.842;2022-12-22T19:15:36;26.17;;;7.85;;
45848;SDS011;31567;54.600;9.842;2022-12-22T19:19:17;22.83;;;6.25;;
45848;SDS011;31567;54.600;9.842;2022-12-22T19:22:58;21.85;;;5.32;;
45848;SDS011;31567;54.600;9.842;2022-12-22T19:26:40;27.50;;;5.10;;
45848;SDS011;31567;54.600;9.842;2022-12-22T19:30:21;24.85;;;5.88;;
45848;SDS011;31567;54.600;9.842;2022-12-22T19:34:03;19.35;;;4.43;;
45848;SDS011;31567;54.600;9.842;2022-12-22T19:37:48;22.20;;;4.75;;
45848;SDS011;31567;54.600;9.842;2022-12-22T19:41:33;23.20;;;6.38;;
45848;SDS011;31567;54.600;9.842;2022-12-22T19:45:23;20.73;;;5.10;;
45848;SDS011;31567;54.600;9.842;2022-12-22T19:49:05;21.25;;;5.15;;
45848;SDS011;31567;54.600;9.842;2022-12-22T19:52:48;28.98;;;5.97;;
45848;SDS011;31567;54.600;9.842;2022-12-22T19:56:28;19.52;;;4.53;;
45848;SDS011;31567;54.600;9.842;2022-12-22T20:04:01;29.85;;;4.68;;
45848;SDS011;31567;54.600;9.842;2022-12-22T20:07:41;26.40;;;5.07;;
45848;SDS011;31567;54.600;9.842;2022-12-22T20:11:20;18.77;;;4.78;;
45848;SDS011;31567;54.600;9.842;2022-12-22T20:15:08;26.38;;;5.13;;
45848;SDS011;31567;54.600;9.842;2022-12-22T20:18:53;19.10;;;4.47;;
45848;SDS011;31567;54.600;9.842;2022-12-22T20:22:33;21.45;;;4.50;;
45848;SDS011;31567;54.600;9.842;2022-12-22T20:26:14;19.98;;;4.60;;
45848;SDS011;31567;54.600;9.842;2022-12-22T20:29:55;22.23;;;3.97;;
45848;SDS011;31567;54.600;9.842;2022-12-22T20:33:35;24.63;;;4.97;;
45848;SDS011;31567;54.600;9.842;2022-12-22T20:37:15;24.27;;;4.53;;
45848;SDS011;31567;54.600;9.842;2022-12-22T20:40:56;23.08;;;4.70;;
45848;SDS011;31567;54.600;9.842;2022-12-22T20:44:36;25.67;;;6.72;;
45848;SDS011;31567;54.600;9.842;2022-12-22T20:48:30;28.08;;;4.90;;
45848;SDS011;31567;54.600;9.842;2022-12-22T20:52:14;21.60;;;5.03;;
45848;SDS011;31567;54.600;9.842;2022-12-22T20:55:55;18.00;;;4.88;;
45848;SDS011;31567;54.600;9.842;2022-12-22T20:59:35;19.58;;;4.72;;
45848;SDS011;31567;54.600;9.842;2022-12-22T21:03:15;25.45;;;6.00;;
45848;SDS011;31567;54.600;9.842;2022-12-22T21:06:55;18.40;;;5.15;;
45848;SDS011;31567;54.600;9.842;2022-12-22T21:10:35;18.77;;;6.13;;
45848;SDS011;31567;54.600;9.842;2022-12-22T21:14:15;24.70;;;6.38;;
45848;SDS011;31567;54.600;9.842;2022-12-22T21:17:54;20.58;;;6.15;;
45848;SDS011;31567;54.600;9.842;2022-12-22T21:21:35;19.63;;;5.82;;
45848;SDS011;31567;54.600;9.842;2022-12-22T21:25:14;15.25;;;6.13;;
45848;SDS011;31567;54.600;9.842;2022-12-22T21:28:54;22.77;;;6.13;;
45848;SDS011;31567;54.600;9.842;2022-12-22T21:32:34;22.25;;;6.55;;
45848;SDS011;31567;54.600;9.842;2022-12-22T21:36:23;21.77;;;7.22;;
45848;SDS011;31567;54.600;9.842;2022-12-22T21:40:05;19.08;;;7.25;;
45848;SDS011;31567;54.600;9.842;2022-12-22T21:43:53;24.85;;;7.93;;
45848;SDS011;31567;54.600;9.842;2022-12-22T21:47:32;22.42;;;8.75;;
45848;SDS011;31567;54.600;9.842;2022-12-22T21:51:12;16.83;;;8.35;;
45848;SDS011;31567;54.600;9.842;2022-12-22T21:54:51;20.35;;;9.00;;
45848;SDS011;31567;54.600;9.842;2022-12-22T21:58:31;26.00;;;8.77;;
45848;SDS011;31567;54.600;9.842;2022-12-22T22:02:15;26.38;;;9.45;;
45848;SDS011;31567;54.600;9.842;2022-12-22T22:05:55;20.08;;;8.55;;
45848;SDS011;31567;54.600;9.842;2022-12-22T22:09:34;18.27;;;9.00;;
45848;SDS011;31567;54.600;9.842;2022-12-22T22:13:14;26.13;;;9.93;;
45848;SDS011;31567;54.600;9.842;2022-12-22T22:16:54;22.77;;;9.50;;
45848;SDS011;31567;54.600;9.842;2022-12-22T22:20:34;24.55;;;10.18;;
45848;SDS011;31567;54.600;9.842;2022-12-22T22:24:13;22.58;;;9.90;;
45848;SDS011;31567;54.600;9.842;2022-12-22T22:27:53;28.00;;;11.07;;
45848;SDS011;31567;54.600;9.842;2022-12-22T22:31:36;21.48;;;10.85;;
45848;SDS011;31567;54.600;9.842;2022-12-22T22:35:17;23.13;;;11.77;;
45848;SDS011;31567;54.600;9.842;2022-12-22T22:38:57;28.55;;;11.68;;
45848;SDS011;31567;54.600;9.842;2022-12-22T22:42:36;26.52;;;12.77;;
45848;SDS011;31567;54.600;9.842;2022-12-22T22:46:16;22.85;;;11.68;;
45848;SDS011;31567;54.600;9.842;2022-12-22T22:49:56;25.13;;;13.02;;
45848;SDS011;31567;54.600;9.842;2022-12-22T22:53:35;24.45;;;12.75;;
45848;SDS011;31567;54.600;9.842;2022-12-22T22:57:15;26.95;;;15.02;;
45848;SDS011;31567;54.600;9.842;2022-12-22T23:00:55;32.92;;;15.38;;
45848;SDS011;31567;54.600;9.842;2022-12-22T23:04:41;30.10;;;14.63;;
45848;SDS011;31567;54.600;9.842;2022-12-22T23:08:20;27.73;;;15.55;;
45848;SDS011;31567;54.600;9.842;2022-12-22T23:12:00;25.73;;;15.55;;
45848;SDS011;31567;54.600;9.842;2022-12-22T23:15:39;29.73;;;15.82;;
45848;SDS011;31567;54.600;9.842;2022-12-22T23:19:19;30.70;;;15.93;;
45848;SDS011;31567;54.600;9.842;2022-12-22T23:22:59;29.45;;;16.80;;
45848;SDS011;31567;54.600;9.842;2022-12-22T23:26:38;26.65;;;14.38;;
45848;SDS011;31567;54.600;9.842;2022-12-22T23:30:18;32.30;;;16.95;;
45848;SDS011;31567;54.600;9.842;2022-12-22T23:33:57;30.60;;;16.58;;
45848;SDS011;31567;54.600;9.842;2022-12-22T23:37:37;32.90;;;15.75;;
45848;SDS011;31567;54.600;9.842;2022-12-22T23:41:17;29.98;;;16.40;;
45848;SDS011;31567;54.600;9.842;2022-12-22T23:44:57;28.60;;;16.02;;
45848;SDS011;31567;54.600;9.842;2022-12-22T23:48:37;31.48;;;16.35;;